Time;durP1;ratioP1;P1;durP2;ratioP2;P2;SDS_P1;SDS_P2;PMS_P1;PMS_P2;Temp;Humidity;BMP_temperature;BMP_pressure;BME280_temperature;BME280_humidity;BME280_pressure;Samples;Min_cycle;Max_cycle;Signal;HPM_P1;HPM_P2
2023/04/13 00:00:32;;;;;;;7.27;5.70;;;;;;;;;;2035852;29;19903;-96
2023/04/13 00:01:39;;;;;;;10.75;5.50;;;;;;;;;;2033675;29;20131;-95
2023/04/13 00:02:46;;;;;;;7.75;5.35;;;;;;;;;;2029583;29;20029;-96
2023/04/13 00:03:48;;;;;;;8.93;6.38;;;;;;;;;;2023867;29;20041;-96
2023/04/13 00:04:50;;;;;;;8.20;5.68;;;;;;;;;;2015284;29;20040;-96
2023/04/13 00:05:52;;;;;;;8.50;5.95;;;;;;;;;;2023351;29;20101;-96
2023/04/13 00:06:57;;;;;;;8.98;5.80;;;;;;;;;;2024680;29;20161;-96
2023/04/13 00:08:01;;;;;;;9.75;5.93;;;;;;;;;;2023125;29;20101;-96
2023/04/13 00:09:05;;;;;;;7.20;5.78;;;;;;;;;;2017214;29;20053;-96
2023/04/13 00:10:08;;;;;;;8.32;5.53;;;;;;;;;;2033169;29;20023;-96
2023/04/13 00:11:11;;;;;;;7.97;5.50;;;;;;;;;;2032051;29;20032;-96
2023/04/13 00:12:15;;;;;;;9.98;6.15;;;;;;;;;;2030714;29;20563;-96
2023/04/13 00:13:18;;;;;;;6.45;5.20;;;;;;;;;;2023349;29;20040;-96
2023/04/13 00:14:18;;;;;;;10.65;5.38;;;;;;;;;;2015387;29;20516;-96
2023/04/13 00:15:19;;;;;;;;;;;;;;;;;;2015690;29;20084;-96
2023/04/13 00:16:20;;;;;;;8.83;5.60;;;;;;;;;;2030914;29;20327;-96
2023/04/13 00:17:20;;;;;;;;;;;;;;;;;;2031647;29;20031;-95
2023/04/13 00:18:21;;;;;;;8.17;5.20;;;;;;;;;;2028102;29;19932;-96
2023/04/13 00:19:21;;;;;;;;;;;;;;;;;;2036134;29;20024;-96
2023/04/13 00:20:21;;;;;;;7.70;5.50;;;;;;;;;;2028220;29;19932;-96
2023/04/13 00:21:22;;;;;;;;;;;;;;;;;;2027976;29;20021;-96
2023/04/13 00:22:26;;;;;;;8.33;6.07;;;;;;;;;;1695863;29;10001242;-96
2023/04/13 00:23:32;;;;;;;8.38;5.68;;;;;;;;;;2035853;29;20068;-96
2023/04/13 00:24:35;;;;;;;9.98;6.18;;;;;;;;;;2028566;29;20027;-96
2023/04/13 00:25:36;;;;;;;10.23;6.68;;;;;;;;;;2028267;29;20070;-96
2023/04/13 00:26:37;;;;;;;;;;;;;;;;;;2035530;29;20017;-96
2023/04/13 00:27:38;;;;;;;10.57;6.78;;;;;;;;;;2027400;29;19951;-95
2023/04/13 00:28:38;;;;;;;;;;;;;;;;;;2036056;29;20021;-95
2023/04/13 00:29:39;;;;;;;8.80;6.13;;;;;;;;;;2042071;29;19907;-94
2023/04/13 00:30:40;;;;;;;10.80;7.07;;;;;;;;;;2047988;29;20078;-93
2023/04/13 00:31:40;;;;;;;;;;;;;;;;;;2033140;29;20112;-94
2023/04/13 00:32:42;;;;;;;13.63;8.10;;;;;;;;;;2032946;29;19911;-94
2023/04/13 00:33:43;;;;;;;9.48;6.95;;;;;;;;;;2024871;29;20081;-93
2023/04/13 00:34:44;;;;;;;;;;;;;;;;;;2022162;29;20288;-93
2023/04/13 00:35:44;;;;;;;8.67;6.63;;;;;;;;;;2030692;29;20046;-92
2023/04/13 00:36:44;;;;;;;;;;;;;;;;;;2030529;29;20029;-93
2023/04/13 00:37:46;;;;;;;8.67;6.47;;;;;;;;;;2029198;29;19942;-93
2023/04/13 00:38:46;;;;;;;10.30;6.68;;;;;;;;;;2022924;29;20105;-94
2023/04/13 00:39:47;;;;;;;;;;;;;;;;;;2028672;29;20067;-94
2023/04/13 00:40:47;;;;;;;7.70;6.47;;;;;;;;;;2027845;29;19915;-96
2023/04/13 00:41:49;;;;;;;;;;;;;;;;;;2027596;29;20123;-95
2023/04/13 00:42:50;;;;;;;10.10;6.65;;;;;;;;;;2026788;29;19968;-95
2023/04/13 00:43:51;;;;;;;;;;;;;;;;;;2026854;29;20330;-95
2023/04/13 00:44:52;;;;;;;8.90;6.15;;;;;;;;;;2034406;29;20390;-94
2023/04/13 00:45:53;;;;;;;8.48;6.38;;;;;;;;;;2033806;29;20036;-95
2023/04/13 00:46:53;;;;;;;;;;;;;;;;;;2026683;29;20084;-95
2023/04/13 00:47:56;;;;;;;8.40;6.40;;;;;;;;;;2027133;29;19920;-96
2023/04/13 00:49:00;;;;;;;9.15;6.47;;;;;;;;;;2027456;29;20532;-96
2023/04/13 00:50:04;;;;;;;7.70;5.65;;;;;;;;;;2027256;29;20048;-95
2023/04/13 00:51:05;;;;;;;7.72;6.05;;;;;;;;;;2029066;29;20080;-96
2023/04/13 00:52:08;;;;;;;;;;;;;;;;;;2034252;29;20024;-96
2023/04/13 00:53:12;;;;;;;9.15;6.07;;;;;;;;;;2035047;29;19911;-96
2023/04/13 00:54:18;;;;;;;17.80;6.20;;;;;;;;;;2035306;29;20076;-96
2023/04/13 00:55:24;;;;;;;9.50;6.15;;;;;;;;;;2036288;29;20080;-96
2023/04/13 00:56:28;;;;;;;9.82;6.15;;;;;;;;;;2043241;29;20012;-95
2023/04/13 00:57:31;;;;;;;8.00;5.72;;;;;;;;;;2034473;29;20020;-95
2023/04/13 00:58:32;;;;;;;8.77;5.90;;;;;;;;;;2034892;29;20017;-96
2023/04/13 00:59:35;;;;;;;9.00;7.13;;;;;;;;;;2034816;29;20031;-96
2023/04/13 01:00:38;;;;;;;8.73;6.28;;;;;;;;;;2019502;29;20093;-95
2023/04/13 01:01:49;;;;;;;9.18;7.00;;;;;;;;;;2019497;29;20033;-95
2023/04/13 01:02:51;;;;;;;12.48;6.82;;;;;;;;;;2025271;29;20477;-96
2023/04/13 01:03:52;;;;;;;8.45;6.40;;;;;;;;;;2029414;29;20032;-94
2023/04/13 01:04:57;;;;;;;6.55;5.53;;;;;;;;;;2030477;29;20115;-95
2023/04/13 01:06:27;;;;;;;8.85;6.00;;;;;;;;;;2031389;29;20028;-95
2023/04/13 01:07:46;;;;;;;8.93;6.13;;;;;;;;;;2039731;29;20039;-95
2023/04/13 01:08:57;;;;;;;9.98;6.03;;;;;;;;;;2032065;29;20037;-95
2023/04/13 01:10:05;;;;;;;8.40;5.40;;;;;;;;;;2027407;29;20056;-95
2023/04/13 01:11:13;;;;;;;10.10;5.15;;;;;;;;;;2035049;29;20102;-94
2023/04/13 01:12:25;;;;;;;10.32;6.18;;;;;;;;;;2043073;29;20027;-95
2023/04/13 01:13:34;;;;;;;8.55;5.60;;;;;;;;;;2034394;29;20032;-95
2023/04/13 01:14:39;;;;;;;9.77;5.55;;;;;;;;;;2034150;29;20028;-96
2023/04/13 01:15:45;;;;;;;8.80;5.38;;;;;;;;;;2029761;29;20025;-95
2023/04/13 01:16:52;;;;;;;12.10;5.88;;;;;;;;;;2030072;29;20124;-96
2023/04/13 01:17:57;;;;;;;8.52;5.88;;;;;;;;;;2028420;29;20034;-95
2023/04/13 01:18:58;;;;;;;7.57;5.63;;;;;;;;;;2028989;29;20047;-96
2023/04/13 01:20:08;;;;;;;7.55;6.22;;;;;;;;;;2020812;29;20029;-95
2023/04/13 01:21:13;;;;;;;13.93;5.40;;;;;;;;;;2028729;29;20028;-95
2023/04/13 01:22:14;;;;;;;11.60;5.53;;;;;;;;;;2027066;29;20115;-95
2023/04/13 01:23:50;;;;;;;6.68;5.43;;;;;;;;;;2031001;29;20035;-94
2023/04/13 01:24:53;;;;;;;6.68;5.25;;;;;;;;;;2034470;29;20104;-94
2023/04/13 01:25:58;;;;;;;6.78;6.07;;;;;;;;;;2028406;29;20104;-96
2023/04/13 01:27:16;;;;;;;9.30;5.95;;;;;;;;;;2027430;29;20032;-95
2023/04/13 01:28:20;;;;;;;8.13;5.55;;;;;;;;;;2028520;29;20028;-96
2023/04/13 01:29:21;;;;;;;10.18;5.78;;;;;;;;;;2021168;29;20027;-96
2023/04/13 01:30:22;;;;;;;;;;;;;;;;;;2028398;29;20043;-96
2023/04/13 01:31:23;;;;;;;7.32;5.68;;;;;;;;;;2027612;29;20287;-96
2023/04/13 01:32:25;;;;;;;;;;;;;;;;;;1684088;29;10152031;-95
2023/04/13 01:33:29;;;;;;;8.30;5.85;;;;;;;;;;2027143;29;19984;-96
2023/04/13 01:34:31;;;;;;;8.63;6.05;;;;;;;;;;2019433;29;20036;-96
2023/04/13 01:35:33;;;;;;;7.72;5.82;;;;;;;;;;2027941;29;20087;-96
2023/04/13 01:36:40;;;;;;;8.00;5.75;;;;;;;;;;2027216;29;20033;-96
2023/04/13 01:37:45;;;;;;;9.63;5.65;;;;;;;;;;2021820;29;20029;-96
2023/04/13 01:38:47;;;;;;;6.13;5.53;;;;;;;;;;2020408;29;20128;-95
2023/04/13 01:39:48;;;;;;;10.10;5.45;;;;;;;;;;2021345;29;20052;-96
2023/04/13 01:40:49;;;;;;;;;;;;;;;;;;2027194;29;20052;-96
2023/04/13 01:43:02;;;;;;;6.25;5.63;;;;;;;;;;2220498;23;21614;-95
2023/04/13 01:44:06;;;;;;;9.98;5.68;;;;;;;;;;2021437;29;20036;-95
2023/04/13 01:45:20;;;;;;;10.57;5.85;;;;;;;;;;2016744;29;20030;-96
2023/04/13 01:46:25;;;;;;;9.00;6.10;;;;;;;;;;2014377;29;20136;-96
2023/04/13 01:47:26;;;;;;;12.93;5.47;;;;;;;;;;2018109;29;20066;-96
2023/04/13 01:48:28;;;;;;;6.30;5.50;;;;;;;;;;2019721;29;20097;-95
2023/04/13 01:49:30;;;;;;;10.65;5.97;;;;;;;;;;2013293;29;20030;-96
2023/04/13 01:50:36;;;;;;;8.00;5.75;;;;;;;;;;2011479;29;20530;-96
2023/04/13 01:51:37;;;;;;;9.85;5.65;;;;;;;;;;2011466;29;20526;-96
2023/04/13 01:52:41;;;;;;;7.38;5.78;;;;;;;;;;2019458;29;20073;-96
2023/04/13 01:53:46;;;;;;;11.60;5.38;;;;;;;;;;2019049;29;20033;-96
2023/04/13 01:54:50;;;;;;;8.70;5.60;;;;;;;;;;2021214;29;20025;-96
2023/04/13 01:55:52;;;;;;;9.70;5.72;;;;;;;;;;2021364;29;20560;-95
2023/04/13 01:57:05;;;;;;;11.45;6.55;;;;;;;;;;2012545;29;20092;-96
2023/04/13 01:58:12;;;;;;;8.57;6.70;;;;;;;;;;2018179;29;20037;-96
2023/04/13 01:59:16;;;;;;;13.88;5.95;;;;;;;;;;2022313;29;20041;-96
2023/04/13 02:00:20;;;;;;;8.27;5.47;;;;;;;;;;2021602;29;20056;-96
2023/04/13 02:01:21;;;;;;;9.65;6.38;;;;;;;;;;2012757;29;20045;-96
2023/04/13 02:02:37;;;;;;;9.57;6.45;;;;;;;;;;2015979;29;20025;-96
2023/04/13 02:03:42;;;;;;;9.82;5.68;;;;;;;;;;2023161;29;20101;-96
2023/04/13 02:04:43;;;;;;;10.82;6.43;;;;;;;;;;2022558;29;20052;-96
2023/04/13 02:05:49;;;;;;;9.95;6.07;;;;;;;;;;2021075;29;20044;-95
2023/04/13 02:06:56;;;;;;;9.95;6.25;;;;;;;;;;2021118;29;20524;-95
2023/04/13 02:07:57;;;;;;;10.43;5.88;;;;;;;;;;2021500;29;20028;-95
2023/04/13 02:08:58;;;;;;;;;;;;;;;;;;2021142;29;20056;-95
2023/04/13 02:10:00;;;;;;;9.05;6.18;;;;;;;;;;2020309;29;20014;-96
2023/04/13 02:11:00;;;;;;;;;;;;;;;;;;2019330;29;20381;-95
2023/04/13 02:12:02;;;;;;;10.90;6.27;;;;;;;;;;2022952;29;19992;-95
2023/04/13 02:13:08;;;;;;;11.23;6.57;;;;;;;;;;2014834;29;20060;-96
2023/04/13 02:14:09;;;;;;;8.70;6.30;;;;;;;;;;2013231;29;20029;-95
2023/04/13 02:15:09;;;;;;;;;;;;;;;;;;2020733;29;20053;-96
2023/04/13 02:16:10;;;;;;;9.87;5.60;;;;;;;;;;2020060;29;19911;-95
2023/04/13 02:17:10;;;;;;;;;;;;;;;;;;2012667;29;20044;-95
2023/04/13 02:18:12;;;;;;;9.43;5.53;;;;;;;;;;2020642;29;19912;-95
2023/04/13 02:19:13;;;;;;;10.88;6.57;;;;;;;;;;2011221;29;20022;-96
2023/04/13 02:20:14;;;;;;;10.60;6.00;;;;;;;;;;2012299;29;20053;-95
2023/04/13 02:21:15;;;;;;;;;;;;;;;;;;2015221;29;20083;-95
2023/04/13 02:22:15;;;;;;;9.48;6.43;;;;;;;;;;2018689;29;19943;-96
2023/04/13 02:23:16;;;;;;;;;;;;;;;;;;2019133;29;20039;-94
2023/04/13 02:24:17;;;;;;;9.10;5.85;;;;;;;;;;2018412;29;19908;-95
2023/04/13 02:25:18;;;;;;;;;;;;;;;;;;2011310;29;20041;-92
2023/04/13 02:26:18;;;;;;;9.33;5.97;;;;;;;;;;2008845;29;19912;-95
2023/04/13 02:27:19;;;;;;;;;;;;;;;;;;2020075;29;20021;-96
2023/04/13 02:28:20;;;;;;;9.43;6.28;;;;;;;;;;2012527;29;19923;-95
2023/04/13 02:29:21;;;;;;;10.55;6.90;;;;;;;;;;2011352;29;20041;-95
2023/04/13 02:30:21;;;;;;;;;;;;;;;;;;2019090;29;20060;-95
2023/04/13 02:31:23;;;;;;;9.93;5.97;;;;;;;;;;2011756;29;19930;-95
2023/04/13 02:32:26;;;;;;;9.52;6.53;;;;;;;;;;2020525;29;20024;-95
2023/04/13 02:33:30;;;;;;;9.13;6.40;;;;;;;;;;2013010;29;20029;-95
2023/04/13 02:34:32;;;;;;;11.15;7.03;;;;;;;;;;2013076;29;20062;-95
2023/04/13 02:35:37;;;;;;;10.70;7.00;;;;;;;;;;2019531;29;20033;-95
2023/04/13 02:36:38;;;;;;;8.32;6.50;;;;;;;;;;2019879;29;20044;-96
2023/04/13 02:37:39;;;;;;;;;;;;;;;;;;2012292;29;20084;-95
2023/04/13 02:38:39;;;;;;;9.13;6.07;;;;;;;;;;2019959;29;19915;-96
2023/04/13 02:39:39;;;;;;;;;;;;;;;;;;2012048;29;20037;-95
2023/04/13 02:40:42;;;;;;;9.83;6.40;;;;;;;;;;2013670;29;19947;-95
2023/04/13 02:41:42;;;;;;;11.70;7.20;;;;;;;;;;2019311;29;20050;-95
2023/04/13 02:42:42;;;;;;;;;;;;;;;;;;2017220;29;20018;-96
2023/04/13 02:43:44;;;;;;;9.43;6.53;;;;;;;;;;2019606;29;20151;-96
2023/04/13 02:44:45;;;;;;;11.00;6.45;;;;;;;;;;2011152;29;20038;-96
2023/04/13 02:45:45;;;;;;;;;;;;;;;;;;2011569;29;20029;-95
2023/04/13 02:46:46;;;;;;;14.80;6.68;;;;;;;;;;2011441;29;19912;-95
2023/04/13 02:47:46;;;;;;;;;;;;;;;;;;2012461;29;20029;-95
2023/04/13 02:48:47;;;;;;;9.37;5.97;;;;;;;;;;2014405;29;19920;-95
2023/04/13 02:49:47;;;;;;;;;;;;;;;;;;2011563;29;20120;-95
2023/04/13 02:50:48;;;;;;;12.43;6.53;;;;;;;;;;2011255;29;19992;-95
2023/04/13 02:51:48;;;;;;;;;;;;;;;;;;2011965;29;20125;-96
2023/04/13 02:52:49;;;;;;;11.07;6.63;;;;;;;;;;2011369;29;19912;-95
2023/04/13 02:53:51;;;;;;;;;;;;;;;;;;2014754;29;20013;-95
2023/04/13 02:54:53;;;;;;;9.38;6.43;;;;;;;;;;2021584;29;20324;-94
2023/04/13 02:55:56;;;;;;;11.75;6.55;;;;;;;;;;2020482;29;20021;-96
2023/04/13 02:56:59;;;;;;;10.70;7.40;;;;;;;;;;2019596;29;20056;-95
2023/04/13 02:58:00;;;;;;;12.27;7.35;;;;;;;;;;2003668;29;20038;-95
2023/04/13 02:59:00;;;;;;;;;;;;;;;;;;2004127;29;20113;-95
2023/04/13 03:00:09;;;;;;;9.97;7.77;;;;;;;;;;2011252;29;19912;-96
2023/04/13 03:01:09;;;;;;;13.43;8.00;;;;;;;;;;2013203;29;20453;-95
2023/04/13 03:02:09;;;;;;;;;;;;;;;;;;2015247;29;20016;-96
2023/04/13 03:03:12;;;;;;;9.97;7.33;;;;;;;;;;2014478;29;19980;-95
2023/04/13 03:04:13;;;;;;;10.75;8.15;;;;;;;;;;2024874;29;20017;-95
2023/04/13 03:05:14;;;;;;;;;;;;;;;;;;2023394;29;20025;-95
2023/04/13 03:06:16;;;;;;;10.10;6.67;;;;;;;;;;2019664;29;19995;-96
2023/04/13 03:07:18;;;;;;;13.77;8.55;;;;;;;;;;2020311;29;20501;-95
2023/04/13 03:08:23;;;;;;;11.15;7.80;;;;;;;;;;2012397;29;20091;-96
2023/04/13 03:09:25;;;;;;;13.10;8.48;;;;;;;;;;2004828;29;20018;-96
2023/04/13 03:10:25;;;;;;;10.23;7.20;;;;;;;;;;2011445;29;20488;-96
2023/04/13 03:11:32;;;;;;;;;;;;;;;;;;2004691;29;20034;-95
2023/04/13 03:12:43;;;;;;;14.63;7.30;;;;;;;;;;2017804;29;19942;-96
2023/04/13 03:13:56;;;;;;;12.45;8.13;;;;;;;;;;2015712;29;20040;-96
2023/04/13 03:15:03;;;;;;;10.60;8.07;;;;;;;;;;2018799;29;20371;-96
2023/04/13 03:16:11;;;;;;;12.48;7.90;;;;;;;;;;2024238;29;20077;-96
2023/04/13 03:17:12;;;;;;;11.50;7.75;;;;;;;;;;2022266;29;20021;-96
2023/04/13 03:18:15;;;;;;;12.05;7.90;;;;;;;;;;2000485;29;20036;-96
2023/04/13 03:19:24;;;;;;;16.20;8.55;;;;;;;;;;2009661;29;20117;-96
2023/04/13 03:20:27;;;;;;;15.93;8.35;;;;;;;;;;2021100;29;20025;-95
2023/04/13 03:21:33;;;;;;;15.70;8.15;;;;;;;;;;2021963;29;20037;-96
2023/04/13 03:22:35;;;;;;;12.20;7.95;;;;;;;;;;2008858;29;20151;-95
2023/04/13 03:23:43;;;;;;;12.20;7.68;;;;;;;;;;2016991;29;20060;-95
2023/04/13 03:24:47;;;;;;;13.45;8.18;;;;;;;;;;2024173;29;20031;-96
2023/04/13 03:26:00;;;;;;;13.98;8.32;;;;;;;;;;2021863;29;20063;-96
2023/04/13 03:27:01;;;;;;;12.20;8.02;;;;;;;;;;2015276;29;20481;-96
2023/04/13 03:28:04;;;;;;;;;;;;;;;;;;2013832;29;20045;-96
2023/04/13 03:29:04;;;;;;;9.95;6.43;;;;;;;;;;2014609;29;19920;-96
2023/04/13 03:30:09;;;;;;;10.93;7.90;;;;;;;;;;2020741;29;20021;-95
2023/04/13 03:31:14;;;;;;;11.52;6.53;;;;;;;;;;2024861;29;20009;-96
2023/04/13 03:32:22;;;;;;;8.82;5.82;;;;;;;;;;2026939;29;20029;-96
2023/04/13 03:33:24;;;;;;;7.55;5.70;;;;;;;;;;2018382;29;20010;-96
2023/04/13 03:35:35;;;;;;;6.90;4.82;;;;;;;;;;2063596;23;20145;-93
2023/04/13 03:36:36;;;;;;;;;;;;;;;;;;2033544;29;20025;-94
2023/04/13 03:37:41;;;;;;;8.90;6.23;;;;;;;;;;2024995;29;19923;-94
2023/04/13 03:38:42;;;;;;;8.20;6.93;;;;;;;;;;2025187;29;20044;-95
2023/04/13 03:39:43;;;;;;;;;;;;;;;;;;2024463;29;20041;-95
2023/04/13 03:40:50;;;;;;;10.88;7.05;;;;;;;;;;2023743;29;19977;-96
2023/04/13 03:41:52;;;;;;;15.55;7.65;;;;;;;;;;2019214;29;20048;-95
2023/04/13 03:42:53;;;;;;;12.30;7.80;;;;;;;;;;2018876;29;20033;-96
2023/04/13 03:44:04;;;;;;;12.50;7.32;;;;;;;;;;2019415;29;20037;-96
2023/04/13 03:45:07;;;;;;;11.45;7.63;;;;;;;;;;2027396;29;20060;-96
2023/04/13 03:46:12;;;;;;;10.65;7.50;;;;;;;;;;2030869;29;20124;-95
2023/04/13 03:47:12;;;;;;;13.52;8.50;;;;;;;;;;2023442;29;20100;-96
2023/04/13 03:48:13;;;;;;;;;;;;;;;;;;2014159;29;20033;-96
2023/04/13 03:49:14;;;;;;;15.33;7.03;;;;;;;;;;2013491;29;19991;-96
2023/04/13 03:50:14;;;;;;;8.15;6.47;;;;;;;;;;2012597;29;20026;-95
2023/04/13 03:51:15;;;;;;;;;;;;;;;;;;2034077;29;20018;-96
2023/04/13 03:52:16;;;;;;;9.50;7.07;;;;;;;;;;2035256;29;19994;-94
2023/04/13 03:53:18;;;;;;;11.50;8.07;;;;;;;;;;2053464;23;20080;-95
2023/04/13 03:54:18;;;;;;;;;;;;;;;;;;2028055;29;20036;-95
2023/04/13 03:55:20;;;;;;;12.13;7.53;;;;;;;;;;2026046;29;20399;-95
2023/04/13 03:59:49;;;;;;;11.88;7.15;;;;;;;;;;2030199;29;20085;-95
2023/04/13 04:00:53;;;;;;;15.18;7.72;;;;;;;;;;2032551;29;20021;-96
2023/04/13 04:01:53;;;;;;;9.95;7.85;;;;;;;;;;2030434;29;20058;-96
2023/04/13 04:02:54;;;;;;;;;;;;;;;;;;2012930;29;20073;-95
2023/04/13 04:03:55;;;;;;;11.33;7.67;;;;;;;;;;2012771;29;19998;-96
2023/04/13 04:04:56;;;;;;;8.68;6.75;;;;;;;;;;2013608;29;20030;-96
2023/04/13 04:05:56;;;;;;;;;;;;;;;;;;2012798;29;20030;-95
2023/04/13 04:06:58;;;;;;;8.30;5.93;;;;;;;;;;2013027;29;19916;-95
2023/04/13 04:07:58;;;;;;;10.20;6.25;;;;;;;;;;2013043;29;20036;-95
2023/04/13 04:08:59;;;;;;;;;;;;;;;;;;2020305;29;20073;-95
2023/04/13 04:09:59;;;;;;;10.67;6.77;;;;;;;;;;2012009;29;20282;-96
2023/04/13 04:11:01;;;;;;;;;;;;;;;;;;2012381;29;20116;-95
2023/04/13 04:12:07;;;;;;;;;;;;;;;;;;2013692;29;20391;-95
2023/04/13 04:13:08;;;;;;;7.28;5.90;;;;;;;;;;2022077;29;19911;-95
2023/04/13 04:14:08;;;;;;;;;;;;;;;;;;2019547;29;20032;-96
2023/04/13 04:15:09;;;;;;;10.80;7.83;;;;;;;;;;2011942;29;19955;-95
2023/04/13 04:16:10;;;;;;;;;;;;;;;;;;2011926;29;20029;-94
2023/04/13 04:17:10;;;;;;;8.13;6.10;;;;;;;;;;2012008;29;19923;-96
2023/04/13 04:18:11;;;;;;;;;;;;;;;;;;2012133;29;20116;-96
2023/04/13 04:19:12;;;;;;;7.70;6.18;;;;;;;;;;2020247;29;20040;-96
2023/04/13 04:20:13;;;;;;;10.00;6.93;;;;;;;;;;2020345;29;20535;-96
2023/04/13 04:21:14;;;;;;;7.78;6.13;;;;;;;;;;2021710;29;20032;-95
2023/04/13 04:22:19;;;;;;;;;;;;;;;;;;2025698;29;20491;-96
2023/04/13 04:23:26;;;;;;;11.00;5.78;;;;;;;;;;2020632;29;19911;-96
2023/04/13 04:24:28;;;;;;;10.93;6.70;;;;;;;;;;2013478;29;20029;-96
2023/04/13 04:25:29;;;;;;;6.80;5.85;;;;;;;;;;2026891;29;20073;-96
2023/04/13 04:26:29;;;;;;;;;;;;;;;;;;2027338;29;20028;-96
2023/04/13 04:27:36;;;;;;;6.83;5.50;;;;;;;;;;2019237;29;19918;-95
2023/04/13 04:28:39;;;;;;;7.53;4.97;;;;;;;;;;2026464;29;20021;-94
2023/04/13 04:29:40;;;;;;;8.38;5.05;;;;;;;;;;2020725;29;20037;-96
2023/04/13 04:30:40;;;;;;;;;;;;;;;;;;2013981;29;20089;-96
2023/04/13 04:31:43;;;;;;;8.33;4.03;;;;;;;;;;2020061;29;19959;-96
2023/04/13 04:32:44;;;;;;;4.75;4.22;;;;;;;;;;2019385;29;20423;-95
2023/04/13 04:33:45;;;;;;;5.82;4.93;;;;;;;;;;2019168;29;20036;-95
2023/04/13 04:34:47;;;;;;;6.47;4.32;;;;;;;;;;2018402;29;20028;-95
2023/04/13 04:35:50;;;;;;;6.13;4.63;;;;;;;;;;2019671;29;20032;-94
2023/04/13 04:36:51;;;;;;;7.00;4.55;;;;;;;;;;2011663;29;20116;-96
2023/04/13 04:37:53;;;;;;;10.05;4.65;;;;;;;;;;2012177;29;20159;-95
2023/04/13 04:38:57;;;;;;;7.75;4.65;;;;;;;;;;1997172;29;20048;-94
2023/04/13 04:39:58;;;;;;;7.95;4.57;;;;;;;;;;2025060;29;20021;-95
2023/04/13 04:41:00;;;;;;;9.55;4.95;;;;;;;;;;2023618;29;20021;-94
2023/04/13 04:42:04;;;;;;;8.93;5.07;;;;;;;;;;2020120;29;20100;-96
2023/04/13 04:43:13;;;;;;;9.75;6.72;;;;;;;;;;2020738;29;20036;-96
2023/04/13 04:44:15;;;;;;;9.77;6.30;;;;;;;;;;2020245;29;20165;-96
2023/04/13 04:45:16;;;;;;;11.93;7.15;;;;;;;;;;2011622;29;20176;-95
2023/04/13 04:46:19;;;;;;;13.90;6.55;;;;;;;;;;2019704;29;20025;-95
2023/04/13 04:48:49;;;;;;;9.38;4.57;;;;;;;;;;2029664;29;20036;-95
2023/04/13 04:50:00;;;;;;;8.00;4.60;;;;;;;;;;2025071;29;20521;-95
2023/04/13 04:51:10;;;;;;;6.28;4.63;;;;;;;;;;2026692;29;20027;-95
2023/04/13 04:52:11;;;;;;;6.40;4.63;;;;;;;;;;2019628;29;20017;-95
2023/04/13 04:53:15;;;;;;;11.02;4.90;;;;;;;;;;2019004;29;20571;-95
2023/04/13 04:54:16;;;;;;;12.45;5.65;;;;;;;;;;2028764;29;20020;-95
2023/04/13 04:55:16;;;;;;;7.03;4.57;;;;;;;;;;2021699;29;20084;-95
2023/04/13 04:56:48;;;;;;;11.88;6.10;;;;;;;;;;2015499;29;20032;-94
2023/04/13 04:57:49;;;;;;;8.27;5.65;;;;;;;;;;2021409;29;20073;-94
2023/04/13 04:59:00;;;;;;;7.97;5.63;;;;;;;;;;2023559;29;20089;-95
2023/04/13 05:00:29;;;;;;;9.18;5.50;;;;;;;;;;2020577;29;20028;-95
2023/04/13 05:01:33;;;;;;;9.02;6.30;;;;;;;;;;2013442;29;20041;-93
2023/04/13 05:02:34;;;;;;;8.80;5.68;;;;;;;;;;2014029;29;20068;-94
2023/04/13 05:03:34;;;;;;;8.65;5.65;;;;;;;;;;2018922;29;20424;-95
2023/04/13 05:04:35;;;;;;;9.63;4.90;;;;;;;;;;2018178;29;20038;-95
2023/04/13 05:05:36;;;;;;;7.90;4.80;;;;;;;;;;2019240;29;20040;-95
2023/04/13 05:06:44;;;;;;;7.35;4.82;;;;;;;;;;2010783;29;20586;-94
2023/04/13 05:07:45;;;;;;;10.85;6.15;;;;;;;;;;2011080;29;20493;-94
2023/04/13 05:08:45;;;;;;;15.07;8.90;;;;;;;;;;2010650;29;20034;-95
2023/04/13 05:09:46;;;;;;;20.60;13.13;;;;;;;;;;2010488;29;20381;-95
2023/04/13 05:10:47;;;;;;;53.55;30.10;;;;;;;;;;2018058;29;20067;-96
2023/04/13 05:16:29;;;;;;;14.35;9.82;;;;;;;;;;2010827;29;20091;-94
2023/04/13 05:17:30;;;;;;;14.35;8.48;;;;;;;;;;2010246;29;20180;-96
2023/04/13 05:18:31;;;;;;;13.55;7.22;;;;;;;;;;2012525;29;20438;-96
2023/04/13 05:19:33;;;;;;;9.18;4.60;;;;;;;;;;2010618;29;20131;-95
2023/04/13 05:20:35;;;;;;;7.10;3.92;;;;;;;;;;2019492;29;20041;-96
2023/04/13 05:21:38;;;;;;;7.22;4.20;;;;;;;;;;2014449;29;20444;-96
2023/04/13 05:22:41;;;;;;;5.28;3.40;;;;;;;;;;2018259;29;20029;-95
2023/04/13 05:23:42;;;;;;;6.40;3.58;;;;;;;;;;2033225;29;20040;-96
2023/04/13 05:24:51;;;;;;;8.53;4.27;;;;;;;;;;1928774;29;10001713;-96
2023/04/13 05:25:52;;;;;;;6.22;4.00;;;;;;;;;;2007989;29;20338;-95
2023/04/13 05:26:55;;;;;;;7.75;3.70;;;;;;;;;;2014265;29;20119;-95
2023/04/13 05:27:58;;;;;;;6.82;3.85;;;;;;;;;;2029135;29;20066;-96
2023/04/13 05:29:08;;;;;;;8.07;4.40;;;;;;;;;;2028691;29;20500;-95
2023/04/13 05:30:18;;;;;;;6.88;5.40;;;;;;;;;;2020059;29;20032;-95
2023/04/13 05:31:19;;;;;;;5.97;4.33;;;;;;;;;;2019372;29;20038;-96
2023/04/13 05:32:19;;;;;;;5.35;4.28;;;;;;;;;;2019763;29;20281;-95
2023/04/13 05:37:14;;;;;;;7.90;4.30;;;;;;;;;;2028819;29;20044;-95
2023/04/13 05:38:18;;;;;;;5.00;4.05;;;;;;;;;;2018903;29;20040;-95
2023/04/13 05:39:20;;;;;;;7.68;4.15;;;;;;;;;;2012381;29;20033;-95
2023/04/13 05:40:21;;;;;;;10.25;4.50;;;;;;;;;;2014825;29;20039;-95
2023/04/13 05:41:21;;;;;;;6.97;3.83;;;;;;;;;;2011601;29;20033;-94
2023/04/13 05:42:23;;;;;;;9.32;4.13;;;;;;;;;;2026771;29;20116;-96
2023/04/13 05:43:24;;;;;;;7.50;4.22;;;;;;;;;;2034602;29;20502;-96
2023/04/13 05:48:38;;;;;;;6.53;4.35;;;;;;;;;;2029936;29;20036;-95
2023/04/13 05:49:39;;;;;;;4.63;3.88;;;;;;;;;;2020421;29;20124;-95
2023/04/13 05:50:39;;;;;;;8.05;4.35;;;;;;;;;;2021647;29;20044;-96
2023/04/13 05:51:46;;;;;;;5.90;3.78;;;;;;;;;;2020299;29;20064;-96
2023/04/13 05:52:47;;;;;;;5.88;4.28;;;;;;;;;;2022130;29;20048;-96
2023/04/13 05:53:48;;;;;;;5.60;4.05;;;;;;;;;;2020956;29;20076;-96
2023/04/13 05:54:57;;;;;;;12.02;4.75;;;;;;;;;;2024333;29;20025;-96
2023/04/13 05:55:59;;;;;;;6.50;4.25;;;;;;;;;;2025079;29;20025;-95
2023/04/13 05:57:00;;;;;;;6.28;4.40;;;;;;;;;;2022720;29;20118;-94
2023/04/13 05:58:21;;;;;;;8.52;4.80;;;;;;;;;;2023493;29;20033;-95
2023/04/13 05:59:22;;;;;;;6.85;5.25;;;;;;;;;;2014051;29;20029;-93
2023/04/13 06:00:23;;;;;;;5.75;4.35;;;;;;;;;;2011181;29;20030;-94
2023/04/13 06:01:24;;;;;;;7.45;5.03;;;;;;;;;;2017705;29;20529;-94
2023/04/13 06:02:25;;;;;;;8.02;4.93;;;;;;;;;;2018108;29;20552;-96
2023/04/13 06:03:26;;;;;;;7.95;5.10;;;;;;;;;;2017787;29;20132;-96
2023/04/13 06:04:27;;;;;;;7.82;5.55;;;;;;;;;;2017837;29;20424;-95
2023/04/13 06:05:28;;;;;;;10.02;5.80;;;;;;;;;;2017944;29;20424;-95
2023/04/13 06:06:29;;;;;;;8.38;5.10;;;;;;;;;;2021378;29;20012;-95
2023/04/13 06:07:29;;;;;;;6.40;4.60;;;;;;;;;;2018022;29;20037;-94
2023/04/13 06:08:31;;;;;;;8.68;4.93;;;;;;;;;;2026258;29;20037;-95
2023/04/13 06:09:32;;;;;;;7.50;4.70;;;;;;;;;;2033041;29;20024;-94
2023/04/13 06:10:35;;;;;;;6.13;4.88;;;;;;;;;;2023273;29;20048;-95
2023/04/13 06:11:36;;;;;;;8.90;4.55;;;;;;;;;;2015215;29;20022;-95
2023/04/13 06:13:07;;;;;;;6.30;4.25;;;;;;;;;;2020718;29;20021;-95
2023/04/13 06:14:15;;;;;;;5.63;3.28;;;;;;;;;;2033202;29;20071;-96
2023/04/13 06:15:16;;;;;;;5.30;3.08;;;;;;;;;;2032586;29;20020;-96
2023/04/13 06:16:17;;;;;;;3.95;3.08;;;;;;;;;;2026879;29;20029;-95
2023/04/13 06:17:17;;;;;;;4.45;2.72;;;;;;;;;;2021353;29;20021;-95
2023/04/13 06:18:18;;;;;;;5.03;2.67;;;;;;;;;;2027400;29;20350;-94
2023/04/13 06:19:19;;;;;;;2.60;2.00;;;;;;;;;;2019227;29;20085;-96
2023/04/13 06:20:20;;;;;;;3.45;1.73;;;;;;;;;;2012334;29;20128;-95
2023/04/13 06:21:21;;;;;;;2.67;1.70;;;;;;;;;;2012983;29;20038;-96
2023/04/13 06:22:21;;;;;;;3.53;1.98;;;;;;;;;;2017916;29;20560;-95
2023/04/13 06:23:25;;;;;;;3.00;1.90;;;;;;;;;;2028024;29;20025;-96
2023/04/13 06:24:26;;;;;;;3.05;1.70;;;;;;;;;;2018913;29;20040;-95
2023/04/13 06:25:26;;;;;;;3.60;1.80;;;;;;;;;;2013053;29;20520;-94
2023/04/13 06:26:27;;;;;;;2.33;1.60;;;;;;;;;;2027209;29;20013;-95
2023/04/13 06:27:28;;;;;;;6.35;2.20;;;;;;;;;;2027125;29;20124;-92
2023/04/13 06:28:32;;;;;;;2.63;1.52;;;;;;;;;;2025358;29;20175;-96
2023/04/13 06:29:34;;;;;;;2.50;1.58;;;;;;;;;;2024659;29;20036;-94
2023/04/13 06:30:36;;;;;;;3.05;1.88;;;;;;;;;;2025617;29;20040;-95
2023/04/13 06:31:36;;;;;;;3.30;2.22;;;;;;;;;;2031498;29;20028;-93
2023/04/13 06:32:37;;;;;;;2.55;2.08;;;;;;;;;;1681983;29;10061431;-94
2023/04/13 06:33:38;;;;;;;4.25;2.10;;;;;;;;;;2005782;29;20037;-95
2023/04/13 06:34:38;;;;;;;8.23;2.20;;;;;;;;;;2010956;29;20033;-93
2023/04/13 06:35:40;;;;;;;3.72;1.90;;;;;;;;;;2023666;29;20132;-94
2023/04/13 06:36:49;;;;;;;4.72;2.15;;;;;;;;;;2020651;29;20044;-93
2023/04/13 06:37:52;;;;;;;5.03;2.17;;;;;;;;;;2031206;29;20060;-94
2023/04/13 06:40:11;;;;;;;6.80;2.00;;;;;;;;;;2391103;23;20027;-94
2023/04/13 06:42:21;;;;;;;1.48;0.98;;;;;;;;;;2393359;23;21147;-92
2023/04/13 06:43:26;;;;;;;4.00;1.40;;;;;;;;;;2008275;29;20065;-92
2023/04/13 06:44:44;;;;;;;2.50;1.48;;;;;;;;;;2002542;29;20038;-93
2023/04/13 06:45:47;;;;;;;3.60;2.53;;;;;;;;;;2063015;23;20049;-94
2023/04/13 06:46:47;;;;;;;4.32;2.40;;;;;;;;;;2025888;29;20032;-92